sensor_id;sensor_type;location;lat;lon;timestamp;P1;durP1;ratioP1;P2;durP2;ratioP2
7899;SDS011;3995;50.856;4.404;2023-07-13T00:02:06;6.43;;;2.10;;
7899;SDS011;3995;50.856;4.404;2023-07-13T00:04:35;8.33;;;2.77;;
7899;SDS011;3995;50.856;4.404;2023-07-13T00:07:03;8.50;;;2.47;;
7899;SDS011;3995;50.856;4.404;2023-07-13T00:09:31;4.63;;;2.33;;
7899;SDS011;3995;50.856;4.404;2023-07-13T00:11:59;7.60;;;2.90;;
7899;SDS011;3995;50.856;4.404;2023-07-13T00:14:28;6.43;;;2.30;;
7899;SDS011;3995;50.856;4.404;2023-07-13T00:16:56;5.77;;;2.13;;
7899;SDS011;3995;50.856;4.404;2023-07-13T00:19:25;9.13;;;2.33;;
7899;SDS011;3995;50.856;4.404;2023-07-13T00:21:54;5.63;;;1.87;;
7899;SDS011;3995;50.856;4.404;2023-07-13T00:24:22;5.80;;;2.10;;
7899;SDS011;3995;50.856;4.404;2023-07-13T00:26:49;9.30;;;2.53;;
7899;SDS011;3995;50.856;4.404;2023-07-13T00:29:17;4.80;;;2.03;;
7899;SDS011;3995;50.856;4.404;2023-07-13T00:31:46;6.97;;;2.00;;
7899;SDS011;3995;50.856;4.404;2023-07-13T00:34:13;8.07;;;2.63;;
7899;SDS011;3995;50.856;4.404;2023-07-13T00:36:41;5.33;;;2.10;;
7899;SDS011;3995;50.856;4.404;2023-07-13T00:39:12;6.70;;;2.33;;
7899;SDS011;3995;50.856;4.404;2023-07-13T00:41:39;6.97;;;2.37;;
7899;SDS011;3995;50.856;4.404;2023-07-13T00:44:09;7.63;;;2.47;;
7899;SDS011;3995;50.856;4.404;2023-07-13T00:46:40;7.37;;;2.70;;
7899;SDS011;3995;50.856;4.404;2023-07-13T00:49:08;6.43;;;2.50;;
7899;SDS011;3995;50.856;4.404;2023-07-13T00:51:41;11.87;;;2.33;;
7899;SDS011;3995;50.856;4.404;2023-07-13T00:54:15;6.03;;;2.37;;
7899;SDS011;3995;50.856;4.404;2023-07-13T00:56:47;7.07;;;2.30;;
7899;SDS011;3995;50.856;4.404;2023-07-13T00:59:17;7.17;;;2.40;;
7899;SDS011;3995;50.856;4.404;2023-07-13T01:01:46;8.10;;;2.00;;
7899;SDS011;3995;50.856;4.404;2023-07-13T01:04:15;6.30;;;2.10;;
7899;SDS011;3995;50.856;4.404;2023-07-13T01:06:43;4.53;;;2.13;;
7899;SDS011;3995;50.856;4.404;2023-07-13T01:09:14;5.63;;;2.20;;
7899;SDS011;3995;50.856;4.404;2023-07-13T01:11:43;11.90;;;2.50;;
7899;SDS011;3995;50.856;4.404;2023-07-13T01:14:11;10.00;;;2.87;;
7899;SDS011;3995;50.856;4.404;2023-07-13T01:16:40;8.80;;;2.60;;
7899;SDS011;3995;50.856;4.404;2023-07-13T01:19:11;7.97;;;2.80;;
7899;SDS011;3995;50.856;4.404;2023-07-13T01:21:51;6.00;;;2.40;;
7899;SDS011;3995;50.856;4.404;2023-07-13T01:24:19;6.67;;;2.20;;
7899;SDS011;3995;50.856;4.404;2023-07-13T01:26:47;5.73;;;2.50;;
7899;SDS011;3995;50.856;4.404;2023-07-13T01:29:15;6.10;;;2.73;;
7899;SDS011;3995;50.856;4.404;2023-07-13T01:31:42;8.07;;;2.17;;
7899;SDS011;3995;50.856;4.404;2023-07-13T01:34:10;15.07;;;3.20;;
7899;SDS011;3995;50.856;4.404;2023-07-13T01:36:37;8.90;;;2.63;;
7899;SDS011;3995;50.856;4.404;2023-07-13T01:39:06;4.57;;;2.10;;
7899;SDS011;3995;50.856;4.404;2023-07-13T01:41:33;11.07;;;2.83;;
7899;SDS011;3995;50.856;4.404;2023-07-13T01:44:00;5.73;;;2.30;;
7899;SDS011;3995;50.856;4.404;2023-07-13T01:46:28;7.90;;;2.60;;
7899;SDS011;3995;50.856;4.404;2023-07-13T01:48:56;11.10;;;2.97;;
7899;SDS011;3995;50.856;4.404;2023-07-13T01:51:24;6.03;;;2.50;;
7899;SDS011;3995;50.856;4.404;2023-07-13T01:53:52;17.70;;;2.17;;
7899;SDS011;3995;50.856;4.404;2023-07-13T01:56:21;7.07;;;2.67;;
7899;SDS011;3995;50.856;4.404;2023-07-13T01:58:49;5.13;;;2.07;;
7899;SDS011;3995;50.856;4.404;2023-07-13T02:01:16;8.63;;;3.13;;
7899;SDS011;3995;50.856;4.404;2023-07-13T02:03:43;6.37;;;2.30;;
7899;SDS011;3995;50.856;4.404;2023-07-13T02:06:12;7.53;;;2.63;;
7899;SDS011;3995;50.856;4.404;2023-07-13T02:08:40;5.60;;;2.40;;
7899;SDS011;3995;50.856;4.404;2023-07-13T02:11:08;8.90;;;2.50;;
7899;SDS011;3995;50.856;4.404;2023-07-13T02:13:37;8.00;;;2.90;;
7899;SDS011;3995;50.856;4.404;2023-07-13T02:16:05;8.20;;;2.87;;
7899;SDS011;3995;50.856;4.404;2023-07-13T02:18:32;8.63;;;2.30;;
7899;SDS011;3995;50.856;4.404;2023-07-13T02:21:00;7.83;;;2.80;;
7899;SDS011;3995;50.856;4.404;2023-07-13T02:23:28;8.17;;;2.80;;
7899;SDS011;3995;50.856;4.404;2023-07-13T02:25:55;5.43;;;2.50;;
7899;SDS011;3995;50.856;4.404;2023-07-13T02:28:23;7.93;;;2.60;;
7899;SDS011;3995;50.856;4.404;2023-07-13T02:30:53;6.03;;;2.37;;
7899;SDS011;3995;50.856;4.404;2023-07-13T02:33:20;7.40;;;2.93;;
7899;SDS011;3995;50.856;4.404;2023-07-13T02:35:47;10.20;;;3.40;;
7899;SDS011;3995;50.856;4.404;2023-07-13T02:38:14;6.47;;;2.70;;
7899;SDS011;3995;50.856;4.404;2023-07-13T02:40:42;9.87;;;2.80;;
7899;SDS011;3995;50.856;4.404;2023-07-13T02:43:09;10.13;;;3.10;;
7899;SDS011;3995;50.856;4.404;2023-07-13T02:45:36;14.30;;;2.90;;
7899;SDS011;3995;50.856;4.404;2023-07-13T02:48:06;9.10;;;3.17;;
7899;SDS011;3995;50.856;4.404;2023-07-13T02:50:33;8.57;;;3.13;;
7899;SDS011;3995;50.856;4.404;2023-07-13T02:53:00;5.87;;;2.20;;
7899;SDS011;3995;50.856;4.404;2023-07-13T02:55:28;10.13;;;2.80;;
7899;SDS011;3995;50.856;4.404;2023-07-13T02:57:56;8.57;;;2.60;;
7899;SDS011;3995;50.856;4.404;2023-07-13T03:00:23;17.40;;;2.93;;
7899;SDS011;3995;50.856;4.404;2023-07-13T03:02:50;6.50;;;2.50;;
7899;SDS011;3995;50.856;4.404;2023-07-13T03:05:20;7.60;;;2.40;;
7899;SDS011;3995;50.856;4.404;2023-07-13T03:07:47;8.10;;;2.33;;
7899;SDS011;3995;50.856;4.404;2023-07-13T03:10:15;10.00;;;2.83;;
7899;SDS011;3995;50.856;4.404;2023-07-13T03:12:42;7.80;;;2.90;;
7899;SDS011;3995;50.856;4.404;2023-07-13T03:15:10;11.90;;;3.50;;
7899;SDS011;3995;50.856;4.404;2023-07-13T03:17:38;11.93;;;3.40;;
7899;SDS011;3995;50.856;4.404;2023-07-13T03:20:05;9.60;;;2.90;;
7899;SDS011;3995;50.856;4.404;2023-07-13T03:22:35;7.77;;;2.70;;
7899;SDS011;3995;50.856;4.404;2023-07-13T03:25:03;6.97;;;2.97;;
7899;SDS011;3995;50.856;4.404;2023-07-13T03:27:31;10.47;;;3.03;;
7899;SDS011;3995;50.856;4.404;2023-07-13T03:29:58;11.40;;;3.00;;
7899;SDS011;3995;50.856;4.404;2023-07-13T03:32:26;11.83;;;3.17;;
7899;SDS011;3995;50.856;4.404;2023-07-13T03:34:53;7.97;;;3.50;;
7899;SDS011;3995;50.856;4.404;2023-07-13T03:37:21;6.50;;;2.33;;
7899;SDS011;3995;50.856;4.404;2023-07-13T03:39:50;9.80;;;3.10;;
7899;SDS011;3995;50.856;4.404;2023-07-13T03:42:18;7.33;;;2.57;;
7899;SDS011;3995;50.856;4.404;2023-07-13T03:44:46;9.33;;;3.33;;
7899;SDS011;3995;50.856;4.404;2023-07-13T03:47:17;10.13;;;3.17;;
7899;SDS011;3995;50.856;4.404;2023-07-13T03:49:44;5.40;;;2.10;;
7899;SDS011;3995;50.856;4.404;2023-07-13T03:52:12;9.27;;;3.50;;
7899;SDS011;3995;50.856;4.404;2023-07-13T03:54:39;9.60;;;3.37;;
7899;SDS011;3995;50.856;4.404;2023-07-13T03:57:08;8.63;;;3.23;;
7899;SDS011;3995;50.856;4.404;2023-07-13T03:59:36;9.20;;;3.23;;
7899;SDS011;3995;50.856;4.404;2023-07-13T04:02:04;7.57;;;3.37;;
7899;SDS011;3995;50.856;4.404;2023-07-13T04:04:31;8.80;;;2.50;;
7899;SDS011;3995;50.856;4.404;2023-07-13T04:06:59;19.93;;;5.17;;
7899;SDS011;3995;50.856;4.404;2023-07-13T04:09:26;13.10;;;3.53;;
7899;SDS011;3995;50.856;4.404;2023-07-13T04:11:53;11.23;;;3.23;;
7899;SDS011;3995;50.856;4.404;2023-07-13T04:14:22;8.33;;;3.00;;
7899;SDS011;3995;50.856;4.404;2023-07-13T04:16:50;10.30;;;3.07;;
7899;SDS011;3995;50.856;4.404;2023-07-13T04:19:19;13.30;;;3.77;;
7899;SDS011;3995;50.856;4.404;2023-07-13T04:21:48;14.40;;;4.10;;
7899;SDS011;3995;50.856;4.404;2023-07-13T04:24:15;9.90;;;3.50;;
7899;SDS011;3995;50.856;4.404;2023-07-13T04:26:44;11.40;;;3.67;;
7899;SDS011;3995;50.856;4.404;2023-07-13T04:29:11;10.07;;;2.67;;
7899;SDS011;3995;50.856;4.404;2023-07-13T04:31:40;13.40;;;3.30;;
7899;SDS011;3995;50.856;4.404;2023-07-13T04:34:07;9.70;;;3.40;;
7899;SDS011;3995;50.856;4.404;2023-07-13T04:36:35;10.63;;;3.13;;
7899;SDS011;3995;50.856;4.404;2023-07-13T04:39:02;16.90;;;3.90;;
7899;SDS011;3995;50.856;4.404;2023-07-13T04:41:31;11.40;;;3.53;;
7899;SDS011;3995;50.856;4.404;2023-07-13T04:43:59;7.57;;;2.90;;
7899;SDS011;3995;50.856;4.404;2023-07-13T04:46:28;6.50;;;2.73;;
7899;SDS011;3995;50.856;4.404;2023-07-13T04:48:57;9.07;;;3.93;;
7899;SDS011;3995;50.856;4.404;2023-07-13T04:51:26;13.27;;;4.57;;
7899;SDS011;3995;50.856;4.404;2023-07-13T04:53:53;11.60;;;3.63;;
7899;SDS011;3995;50.856;4.404;2023-07-13T04:56:21;14.37;;;3.27;;
7899;SDS011;3995;50.856;4.404;2023-07-13T04:58:49;11.00;;;3.87;;
7899;SDS011;3995;50.856;4.404;2023-07-13T05:01:16;10.40;;;3.27;;
7899;SDS011;3995;50.856;4.404;2023-07-13T05:03:45;10.37;;;3.33;;
7899;SDS011;3995;50.856;4.404;2023-07-13T05:06:14;10.63;;;3.20;;
7899;SDS011;3995;50.856;4.404;2023-07-13T05:08:42;17.27;;;4.10;;
7899;SDS011;3995;50.856;4.404;2023-07-13T05:11:10;10.53;;;3.60;;
7899;SDS011;3995;50.856;4.404;2023-07-13T05:13:40;14.17;;;3.03;;
7899;SDS011;3995;50.856;4.404;2023-07-13T05:16:07;8.60;;;3.40;;
7899;SDS011;3995;50.856;4.404;2023-07-13T05:18:35;12.63;;;3.60;;
7899;SDS011;3995;50.856;4.404;2023-07-13T05:21:03;10.83;;;3.23;;
7899;SDS011;3995;50.856;4.404;2023-07-13T05:23:34;10.73;;;2.90;;
7899;SDS011;3995;50.856;4.404;2023-07-13T05:26:03;11.57;;;3.80;;
7899;SDS011;3995;50.856;4.404;2023-07-13T05:28:31;8.80;;;2.80;;
7899;SDS011;3995;50.856;4.404;2023-07-13T05:30:58;8.20;;;2.70;;
7899;SDS011;3995;50.856;4.404;2023-07-13T05:33:26;11.20;;;4.27;;
7899;SDS011;3995;50.856;4.404;2023-07-13T05:35:53;14.43;;;4.47;;
7899;SDS011;3995;50.856;4.404;2023-07-13T05:38:20;10.77;;;3.80;;
7899;SDS011;3995;50.856;4.404;2023-07-13T05:40:50;14.00;;;3.60;;
7899;SDS011;3995;50.856;4.404;2023-07-13T05:43:20;12.10;;;3.40;;
7899;SDS011;3995;50.856;4.404;2023-07-13T05:45:47;14.10;;;3.17;;
7899;SDS011;3995;50.856;4.404;2023-07-13T05:48:15;8.63;;;3.27;;
7899;SDS011;3995;50.856;4.404;2023-07-13T05:50:42;10.57;;;4.53;;
7899;SDS011;3995;50.856;4.404;2023-07-13T05:53:09;12.77;;;3.97;;
7899;SDS011;3995;50.856;4.404;2023-07-13T05:55:40;10.90;;;3.40;;
7899;SDS011;3995;50.856;4.404;2023-07-13T05:58:10;8.43;;;3.00;;
7899;SDS011;3995;50.856;4.404;2023-07-13T06:00:38;10.83;;;3.73;;
7899;SDS011;3995;50.856;4.404;2023-07-13T06:03:06;12.83;;;3.57;;
7899;SDS011;3995;50.856;4.404;2023-07-13T06:05:34;12.70;;;4.20;;
7899;SDS011;3995;50.856;4.404;2023-07-13T06:08:03;11.03;;;3.20;;
7899;SDS011;3995;50.856;4.404;2023-07-13T06:10:32;12.27;;;3.70;;
7899;SDS011;3995;50.856;4.404;2023-07-13T06:13:00;10.93;;;3.87;;
7899;SDS011;3995;50.856;4.404;2023-07-13T06:15:28;10.30;;;3.80;;
7899;SDS011;3995;50.856;4.404;2023-07-13T06:17:56;15.37;;;3.47;;
7899;SDS011;3995;50.856;4.404;2023-07-13T06:20:23;6.90;;;3.10;;
7899;SDS011;3995;50.856;4.404;2023-07-13T06:22:51;10.40;;;3.37;;
7899;SDS011;3995;50.856;4.404;2023-07-13T06:25:18;12.77;;;3.60;;
7899;SDS011;3995;50.856;4.404;2023-07-13T06:27:46;13.60;;;3.90;;
7899;SDS011;3995;50.856;4.404;2023-07-13T06:30:13;8.60;;;3.33;;
7899;SDS011;3995;50.856;4.404;2023-07-13T06:32:42;10.97;;;2.90;;
7899;SDS011;3995;50.856;4.404;2023-07-13T06:35:10;8.93;;;3.20;;
7899;SDS011;3995;50.856;4.404;2023-07-13T06:37:38;14.43;;;3.47;;
7899;SDS011;3995;50.856;4.404;2023-07-13T06:40:07;11.53;;;3.57;;
7899;SDS011;3995;50.856;4.404;2023-07-13T06:42:35;13.43;;;4.30;;
7899;SDS011;3995;50.856;4.404;2023-07-13T06:45:03;9.43;;;3.60;;
7899;SDS011;3995;50.856;4.404;2023-07-13T06:47:32;10.50;;;3.50;;
7899;SDS011;3995;50.856;4.404;2023-07-13T06:50:01;8.20;;;3.33;;
7899;SDS011;3995;50.856;4.404;2023-07-13T06:52:28;10.13;;;3.90;;
7899;SDS011;3995;50.856;4.404;2023-07-13T06:54:55;12.07;;;3.80;;
7899;SDS011;3995;50.856;4.404;2023-07-13T06:57:23;11.60;;;3.87;;
7899;SDS011;3995;50.856;4.404;2023-07-13T06:59:51;11.73;;;3.60;;
7899;SDS011;3995;50.856;4.404;2023-07-13T07:02:19;9.97;;;3.67;;
7899;SDS011;3995;50.856;4.404;2023-07-13T07:04:46;12.40;;;3.90;;
7899;SDS011;3995;50.856;4.404;2023-07-13T07:07:16;13.67;;;3.73;;
7899;SDS011;3995;50.856;4.404;2023-07-13T07:09:44;15.87;;;3.70;;
7899;SDS011;3995;50.856;4.404;2023-07-13T07:12:11;7.73;;;3.50;;
7899;SDS011;3995;50.856;4.404;2023-07-13T07:14:39;8.17;;;3.30;;
7899;SDS011;3995;50.856;4.404;2023-07-13T07:17:06;11.83;;;3.50;;
7899;SDS011;3995;50.856;4.404;2023-07-13T07:19:34;13.07;;;4.23;;
7899;SDS011;3995;50.856;4.404;2023-07-13T07:22:02;14.87;;;3.50;;
7899;SDS011;3995;50.856;4.404;2023-07-13T07:24:32;15.87;;;4.10;;
7899;SDS011;3995;50.856;4.404;2023-07-13T07:27:00;11.50;;;4.13;;
7899;SDS011;3995;50.856;4.404;2023-07-13T07:29:27;14.03;;;4.03;;
7899;SDS011;3995;50.856;4.404;2023-07-13T07:31:55;8.03;;;3.00;;
7899;SDS011;3995;50.856;4.404;2023-07-13T07:34:23;9.50;;;3.20;;
7899;SDS011;3995;50.856;4.404;2023-07-13T07:36:50;10.70;;;3.17;;
7899;SDS011;3995;50.856;4.404;2023-07-13T07:39:17;7.27;;;3.33;;
7899;SDS011;3995;50.856;4.404;2023-07-13T07:41:47;16.90;;;3.00;;
7899;SDS011;3995;50.856;4.404;2023-07-13T07:44:14;18.57;;;4.33;;
7899;SDS011;3995;50.856;4.404;2023-07-13T07:46:42;9.17;;;3.60;;
7899;SDS011;3995;50.856;4.404;2023-07-13T07:49:09;8.90;;;3.70;;
7899;SDS011;3995;50.856;4.404;2023-07-13T07:51:37;6.73;;;3.17;;
7899;SDS011;3995;50.856;4.404;2023-07-13T07:54:04;6.07;;;3.03;;
7899;SDS011;3995;50.856;4.404;2023-07-13T07:56:32;9.23;;;3.13;;
7899;SDS011;3995;50.856;4.404;2023-07-13T07:59:02;10.87;;;3.20;;
7899;SDS011;3995;50.856;4.404;2023-07-13T08:01:29;12.27;;;3.07;;
7899;SDS011;3995;50.856;4.404;2023-07-13T08:03:57;7.63;;;2.80;;
7899;SDS011;3995;50.856;4.404;2023-07-13T08:06:24;10.57;;;3.17;;
7899;SDS011;3995;50.856;4.404;2023-07-13T08:08:52;7.40;;;2.63;;
7899;SDS011;3995;50.856;4.404;2023-07-13T08:11:20;12.37;;;3.63;;
7899;SDS011;3995;50.856;4.404;2023-07-13T08:13:49;11.83;;;3.57;;
7899;SDS011;3995;50.856;4.404;2023-07-13T08:16:18;8.00;;;3.27;;
7899;SDS011;3995;50.856;4.404;2023-07-13T08:18:45;18.20;;;4.60;;
7899;SDS011;3995;50.856;4.404;2023-07-13T08:21:12;10.20;;;3.47;;
7899;SDS011;3995;50.856;4.404;2023-07-13T08:23:39;8.27;;;2.97;;
7899;SDS011;3995;50.856;4.404;2023-07-13T08:26:07;12.40;;;3.50;;
7899;SDS011;3995;50.856;4.404;2023-07-13T08:28:35;10.90;;;4.50;;
7899;SDS011;3995;50.856;4.404;2023-07-13T08:31:03;7.63;;;2.97;;
7899;SDS011;3995;50.856;4.404;2023-07-13T08:33:33;9.03;;;2.97;;
7899;SDS011;3995;50.856;4.404;2023-07-13T08:36:02;6.03;;;3.00;;
7899;SDS011;3995;50.856;4.404;2023-07-13T08:38:30;6.10;;;2.93;;
7899;SDS011;3995;50.856;4.404;2023-07-13T08:40:57;8.93;;;3.13;;
7899;SDS011;3995;50.856;4.404;2023-07-13T08:43:25;13.80;;;4.20;;
7899;SDS011;3995;50.856;4.404;2023-07-13T08:45:57;14.80;;;4.00;;
7899;SDS011;3995;50.856;4.404;2023-07-13T08:48:29;8.87;;;2.93;;
7899;SDS011;3995;50.856;4.404;2023-07-13T08:51:02;6.60;;;2.93;;
7899;SDS011;3995;50.856;4.404;2023-07-13T08:53:41;6.47;;;2.83;;
7899;SDS011;3995;50.856;4.404;2023-07-13T08:56:15;6.13;;;3.00;;
7899;SDS011;3995;50.856;4.404;2023-07-13T08:58:46;12.07;;;2.70;;
7899;SDS011;3995;50.856;4.404;2023-07-13T09:01:17;5.03;;;2.83;;
7899;SDS011;3995;50.856;4.404;2023-07-13T09:03:53;11.43;;;3.20;;
7899;SDS011;3995;50.856;4.404;2023-07-13T09:06:30;9.67;;;2.80;;
7899;SDS011;3995;50.856;4.404;2023-07-13T09:09:06;5.07;;;2.60;;
7899;SDS011;3995;50.856;4.404;2023-07-13T09:11:45;5.83;;;2.60;;
7899;SDS011;3995;50.856;4.404;2023-07-13T09:14:26;11.50;;;2.90;;
7899;SDS011;3995;50.856;4.404;2023-07-13T09:17:01;6.03;;;2.60;;
7899;SDS011;3995;50.856;4.404;2023-07-13T09:19:31;10.70;;;2.67;;
7899;SDS011;3995;50.856;4.404;2023-07-13T09:22:03;6.53;;;2.53;;
7899;SDS011;3995;50.856;4.404;2023-07-13T09:24:37;7.23;;;3.10;;
7899;SDS011;3995;50.856;4.404;2023-07-13T09:27:14;7.60;;;2.77;;
7899;SDS011;3995;50.856;4.404;2023-07-13T09:29:47;7.00;;;2.70;;
7899;SDS011;3995;50.856;4.404;2023-07-13T09:32:17;10.33;;;2.63;;
7899;SDS011;3995;50.856;4.404;2023-07-13T09:34:51;5.97;;;2.47;;
7899;SDS011;3995;50.856;4.404;2023-07-13T09:37:22;7.03;;;3.20;;
7899;SDS011;3995;50.856;4.404;2023-07-13T09:39:57;5.53;;;2.37;;
7899;SDS011;3995;50.856;4.404;2023-07-13T09:42:30;5.30;;;2.60;;
7899;SDS011;3995;50.856;4.404;2023-07-13T09:45:00;7.80;;;2.60;;
7899;SDS011;3995;50.856;4.404;2023-07-13T09:47:30;4.57;;;2.37;;
7899;SDS011;3995;50.856;4.404;2023-07-13T09:49:58;6.13;;;2.77;;
7899;SDS011;3995;50.856;4.404;2023-07-13T09:52:38;5.87;;;3.07;;
7899;SDS011;3995;50.856;4.404;2023-07-13T09:55:15;7.83;;;3.00;;
7899;SDS011;3995;50.856;4.404;2023-07-13T09:57:50;5.97;;;2.67;;
7899;SDS011;3995;50.856;4.404;2023-07-13T10:00:20;8.53;;;2.90;;
7899;SDS011;3995;50.856;4.404;2023-07-13T10:02:58;5.57;;;2.73;;
7899;SDS011;3995;50.856;4.404;2023-07-13T10:05:40;8.63;;;2.37;;
7899;SDS011;3995;50.856;4.404;2023-07-13T10:08:20;5.90;;;2.83;;
7899;SDS011;3995;50.856;4.404;2023-07-13T10:10:53;10.67;;;3.13;;
7899;SDS011;3995;50.856;4.404;2023-07-13T10:13:29;5.13;;;2.47;;
7899;SDS011;3995;50.856;4.404;2023-07-13T10:16:02;5.07;;;2.87;;
7899;SDS011;3995;50.856;4.404;2023-07-13T10:18:34;7.80;;;2.30;;
7899;SDS011;3995;50.856;4.404;2023-07-13T10:21:13;6.13;;;2.37;;
7899;SDS011;3995;50.856;4.404;2023-07-13T10:23:45;4.90;;;2.03;;
7899;SDS011;3995;50.856;4.404;2023-07-13T10:26:18;5.57;;;1.97;;
7899;SDS011;3995;50.856;4.404;2023-07-13T10:28:50;6.03;;;2.60;;
7899;SDS011;3995;50.856;4.404;2023-07-13T10:31:20;3.50;;;1.93;;
7899;SDS011;3995;50.856;4.404;2023-07-13T10:33:48;6.60;;;2.60;;
7899;SDS011;3995;50.856;4.404;2023-07-13T10:36:18;10.80;;;2.20;;
7899;SDS011;3995;50.856;4.404;2023-07-13T10:38:55;4.43;;;1.90;;
7899;SDS011;3995;50.856;4.404;2023-07-13T10:41:28;13.63;;;3.23;;
7899;SDS011;3995;50.856;4.404;2023-07-13T10:44:00;9.40;;;2.90;;
7899;SDS011;3995;50.856;4.404;2023-07-13T10:46:28;5.97;;;2.60;;
7899;SDS011;3995;50.856;4.404;2023-07-13T10:48:57;8.33;;;2.53;;
7899;SDS011;3995;50.856;4.404;2023-07-13T10:51:29;4.33;;;2.23;;
7899;SDS011;3995;50.856;4.404;2023-07-13T10:54:18;5.60;;;2.63;;
7899;SDS011;3995;50.856;4.404;2023-07-13T10:56:50;9.47;;;2.63;;
7899;SDS011;3995;50.856;4.404;2023-07-13T10:59:23;7.20;;;2.30;;
7899;SDS011;3995;50.856;4.404;2023-07-13T11:01:55;6.67;;;2.40;;
7899;SDS011;3995;50.856;4.404;2023-07-13T11:04:24;5.80;;;2.80;;
7899;SDS011;3995;50.856;4.404;2023-07-13T11:06:56;6.60;;;2.50;;
7899;SDS011;3995;50.856;4.404;2023-07-13T11:12:28;4.73;;;2.27;;
7899;SDS011;3995;50.856;4.404;2023-07-13T11:15:26;5.80;;;2.17;;
7899;SDS011;3995;50.856;4.404;2023-07-13T11:17:57;15.67;;;2.63;;
7899;SDS011;3995;50.856;4.404;2023-07-13T11:20:32;4.97;;;2.13;;
7899;SDS011;3995;50.856;4.404;2023-07-13T11:23:19;8.03;;;2.83;;
7899;SDS011;3995;50.856;4.404;2023-07-13T11:25:55;5.30;;;2.77;;
7899;SDS011;3995;50.856;4.404;2023-07-13T11:28:24;8.80;;;2.20;;
7899;SDS011;3995;50.856;4.404;2023-07-13T11:31:03;6.70;;;2.37;;
7899;SDS011;3995;50.856;4.404;2023-07-13T11:33:50;3.30;;;1.87;;
7899;SDS011;3995;50.856;4.404;2023-07-13T11:36:24;3.97;;;2.10;;
7899;SDS011;3995;50.856;4.404;2023-07-13T11:38:58;4.83;;;1.90;;
7899;SDS011;3995;50.856;4.404;2023-07-13T11:41:30;5.63;;;2.13;;
7899;SDS011;3995;50.856;4.404;2023-07-13T11:44:10;6.67;;;2.13;;
7899;SDS011;3995;50.856;4.404;2023-07-13T11:46:43;4.80;;;2.07;;
7899;SDS011;3995;50.856;4.404;2023-07-13T11:49:13;7.97;;;2.33;;
7899;SDS011;3995;50.856;4.404;2023-07-13T11:51:43;6.47;;;2.57;;
7899;SDS011;3995;50.856;4.404;2023-07-13T11:54:14;8.03;;;2.23;;
7899;SDS011;3995;50.856;4.404;2023-07-13T11:56:49;3.90;;;1.80;;
7899;SDS011;3995;50.856;4.404;2023-07-13T11:59:17;4.30;;;2.30;;
7899;SDS011;3995;50.856;4.404;2023-07-13T12:01:47;10.00;;;2.73;;
7899;SDS011;3995;50.856;4.404;2023-07-13T12:04:20;4.40;;;1.80;;
7899;SDS011;3995;50.856;4.404;2023-07-13T12:06:57;4.77;;;2.03;;
7899;SDS011;3995;50.856;4.404;2023-07-13T12:09:30;4.90;;;2.27;;
7899;SDS011;3995;50.856;4.404;2023-07-13T12:12:03;4.13;;;1.70;;
7899;SDS011;3995;50.856;4.404;2023-07-13T12:14:37;5.83;;;2.40;;
7899;SDS011;3995;50.856;4.404;2023-07-13T12:17:08;3.40;;;1.80;;
7899;SDS011;3995;50.856;4.404;2023-07-13T12:19:39;3.07;;;1.67;;
7899;SDS011;3995;50.856;4.404;2023-07-13T12:22:08;4.33;;;2.27;;
7899;SDS011;3995;50.856;4.404;2023-07-13T12:24:38;7.90;;;2.20;;
7899;SDS011;3995;50.856;4.404;2023-07-13T12:27:16;4.80;;;1.80;;
7899;SDS011;3995;50.856;4.404;2023-07-13T12:29:51;8.67;;;2.27;;
7899;SDS011;3995;50.856;4.404;2023-07-13T12:32:25;2.77;;;1.53;;
7899;SDS011;3995;50.856;4.404;2023-07-13T12:34:55;2.40;;;1.47;;
7899;SDS011;3995;50.856;4.404;2023-07-13T12:37:33;3.87;;;2.00;;
7899;SDS011;3995;50.856;4.404;2023-07-13T12:40:02;3.73;;;2.10;;
7899;SDS011;3995;50.856;4.404;2023-07-13T12:42:35;3.20;;;1.80;;
7899;SDS011;3995;50.856;4.404;2023-07-13T12:45:11;4.43;;;2.20;;
7899;SDS011;3995;50.856;4.404;2023-07-13T12:47:47;3.40;;;1.97;;
7899;SDS011;3995;50.856;4.404;2023-07-13T12:50:18;4.40;;;2.00;;
7899;SDS011;3995;50.856;4.404;2023-07-13T12:52:50;3.83;;;1.97;;
7899;SDS011;3995;50.856;4.404;2023-07-13T12:55:19;4.97;;;2.27;;
7899;SDS011;3995;50.856;4.404;2023-07-13T12:57:52;6.10;;;2.43;;
7899;SDS011;3995;50.856;4.404;2023-07-13T13:00:23;6.80;;;3.63;;
7899;SDS011;3995;50.856;4.404;2023-07-13T13:02:52;4.33;;;2.20;;
7899;SDS011;3995;50.856;4.404;2023-07-13T13:05:24;6.57;;;2.80;;
7899;SDS011;3995;50.856;4.404;2023-07-13T13:07:53;5.63;;;2.60;;
7899;SDS011;3995;50.856;4.404;2023-07-13T13:10:20;6.67;;;2.30;;
7899;SDS011;3995;50.856;4.404;2023-07-13T13:12:50;5.00;;;2.10;;
7899;SDS011;3995;50.856;4.404;2023-07-13T13:15:18;4.30;;;1.80;;
7899;SDS011;3995;50.856;4.404;2023-07-13T13:17:47;5.40;;;2.37;;
7899;SDS011;3995;50.856;4.404;2023-07-13T13:20:15;4.53;;;1.80;;
7899;SDS011;3995;50.856;4.404;2023-07-13T13:22:44;3.57;;;2.33;;
7899;SDS011;3995;50.856;4.404;2023-07-13T13:25:12;4.10;;;2.10;;
7899;SDS011;3995;50.856;4.404;2023-07-13T13:27:41;3.07;;;1.60;;
7899;SDS011;3995;50.856;4.404;2023-07-13T13:30:12;5.00;;;2.20;;
7899;SDS011;3995;50.856;4.404;2023-07-13T13:32:41;4.20;;;2.30;;
7899;SDS011;3995;50.856;4.404;2023-07-13T13:35:12;4.13;;;1.97;;
7899;SDS011;3995;50.856;4.404;2023-07-13T13:37:41;3.70;;;2.13;;
7899;SDS011;3995;50.856;4.404;2023-07-13T13:40:15;3.73;;;2.13;;
7899;SDS011;3995;50.856;4.404;2023-07-13T13:42:43;4.07;;;2.63;;
7899;SDS011;3995;50.856;4.404;2023-07-13T13:45:12;4.37;;;2.10;;
7899;SDS011;3995;50.856;4.404;2023-07-13T13:47:43;4.67;;;2.10;;
7899;SDS011;3995;50.856;4.404;2023-07-13T13:50:11;3.20;;;1.97;;
7899;SDS011;3995;50.856;4.404;2023-07-13T13:52:40;4.27;;;2.10;;
7899;SDS011;3995;50.856;4.404;2023-07-13T13:55:11;3.80;;;2.30;;
7899;SDS011;3995;50.856;4.404;2023-07-13T13:57:39;2.73;;;1.87;;
7899;SDS011;3995;50.856;4.404;2023-07-13T14:00:07;4.57;;;1.80;;
7899;SDS011;3995;50.856;4.404;2023-07-13T14:02:41;3.73;;;2.17;;
7899;SDS011;3995;50.856;4.404;2023-07-13T14:05:12;3.80;;;2.33;;
7899;SDS011;3995;50.856;4.404;2023-07-13T14:07:41;5.30;;;2.30;;
7899;SDS011;3995;50.856;4.404;2023-07-13T14:10:11;4.30;;;2.10;;
7899;SDS011;3995;50.856;4.404;2023-07-13T14:12:40;7.07;;;2.93;;
7899;SDS011;3995;50.856;4.404;2023-07-13T14:15:12;3.43;;;1.93;;
7899;SDS011;3995;50.856;4.404;2023-07-13T14:17:46;5.13;;;2.10;;
7899;SDS011;3995;50.856;4.404;2023-07-13T14:20:15;3.33;;;1.80;;
7899;SDS011;3995;50.856;4.404;2023-07-13T14:22:44;2.60;;;1.60;;
7899;SDS011;3995;50.856;4.404;2023-07-13T14:25:12;5.57;;;2.50;;
7899;SDS011;3995;50.856;4.404;2023-07-13T14:27:41;2.97;;;1.87;;
7899;SDS011;3995;50.856;4.404;2023-07-13T14:30:12;4.10;;;2.00;;
7899;SDS011;3995;50.856;4.404;2023-07-13T14:32:41;4.17;;;2.17;;
7899;SDS011;3995;50.856;4.404;2023-07-13T14:35:11;5.50;;;1.60;;
7899;SDS011;3995;50.856;4.404;2023-07-13T14:37:39;10.73;;;1.80;;
7899;SDS011;3995;50.856;4.404;2023-07-13T14:40:12;4.10;;;2.20;;
7899;SDS011;3995;50.856;4.404;2023-07-13T14:42:40;2.87;;;1.80;;
7899;SDS011;3995;50.856;4.404;2023-07-13T14:45:12;3.63;;;1.90;;
7899;SDS011;3995;50.856;4.404;2023-07-13T14:47:40;5.40;;;2.17;;
7899;SDS011;3995;50.856;4.404;2023-07-13T14:52:56;2.07;;;1.60;;
7899;SDS011;3995;50.856;4.404;2023-07-13T14:55:23;3.27;;;1.50;;
7899;SDS011;3995;50.856;4.404;2023-07-13T14:57:52;2.73;;;1.67;;
7899;SDS011;3995;50.856;4.404;2023-07-13T15:00:20;2.33;;;1.40;;
7899;SDS011;3995;50.856;4.404;2023-07-13T15:02:50;8.83;;;1.83;;
7899;SDS011;3995;50.856;4.404;2023-07-13T15:05:20;4.93;;;1.83;;
7899;SDS011;3995;50.856;4.404;2023-07-13T15:07:51;4.70;;;2.13;;
7899;SDS011;3995;50.856;4.404;2023-07-13T15:10:20;7.53;;;2.13;;
7899;SDS011;3995;50.856;4.404;2023-07-13T15:12:50;5.63;;;1.87;;
7899;SDS011;3995;50.856;4.404;2023-07-13T15:15:18;4.00;;;2.10;;
7899;SDS011;3995;50.856;4.404;2023-07-13T15:17:47;4.47;;;1.73;;
7899;SDS011;3995;50.856;4.404;2023-07-13T15:20:19;5.90;;;2.17;;
7899;SDS011;3995;50.856;4.404;2023-07-13T15:22:54;4.03;;;2.20;;
7899;SDS011;3995;50.856;4.404;2023-07-13T15:25:22;2.63;;;1.63;;
7899;SDS011;3995;50.856;4.404;2023-07-13T15:27:52;4.37;;;2.13;;
7899;SDS011;3995;50.856;4.404;2023-07-13T15:30:20;2.80;;;1.60;;
7899;SDS011;3995;50.856;4.404;2023-07-13T15:32:48;2.37;;;1.50;;
7899;SDS011;3995;50.856;4.404;2023-07-13T15:35:17;4.27;;;2.00;;